Time;durP1;ratioP1;P1;durP2;ratioP2;P2;SDS_P1;SDS_P2;PMS_P1;PMS_P2;Temp;Humidity;BMP_temperature;BMP_pressure;BME280_temperature;BME280_humidity;BME280_pressure;Samples;Min_cycle;Max_cycle;Signal;HPM_P1;HPM_P2
2023/11/03 00:02:22;;;;;;;6.63;4.25;;;13.20;95.50;;;;;;5019528;28;20010;-69
2023/11/03 00:04:48;;;;;;;6.85;4.57;;;13.10;93.00;;;;;;5039253;28;20029;-69
2023/11/03 00:07:14;;;;;;;10.27;4.97;;;13.30;95.30;;;;;;5039424;28;20313;-73
2023/11/03 00:09:40;;;;;;;8.75;4.32;;;;;;;;;;5021420;28;20034;-72
2023/11/03 00:12:07;;;;;;;9.75;4.40;;;13.00;92.40;;;;;;5039227;28;20025;-72
2023/11/03 00:14:33;;;;;;;7.88;4.43;;;13.00;92.70;;;;;;5040486;28;20052;-72
2023/11/03 00:16:59;;;;;;;7.60;4.70;;;13.00;95.30;;;;;;5024937;28;20021;-70
2023/11/03 00:19:25;;;;;;;6.68;4.43;;;;;;;;;;5051644;28;20056;-69
2023/11/03 00:21:55;;;;;;;8.95;4.70;;;;;;;;;;5045403;28;20032;-70
2023/11/03 00:24:25;;;;;;;9.30;4.80;;;;;;;;;;5042831;28;20023;-70
2023/11/03 00:26:54;;;;;;;5.22;4.05;;;;;;;;;;5060636;28;20120;-70
2023/11/03 00:29:22;;;;;;;6.38;3.90;;;13.00;89.30;;;;;;5044524;28;20063;-69
2023/11/03 00:31:49;;;;;;;8.23;4.68;;;;;;;;;;5062456;28;20043;-69
2023/11/03 00:34:15;;;;;;;8.95;4.72;;;13.00;89.00;;;;;;5062447;28;20021;-70
2023/11/03 00:36:43;;;;;;;11.07;4.22;;;13.10;95.00;;;;;;5056955;28;20022;-70
2023/11/03 00:39:12;;;;;;;8.77;4.53;;;12.80;91.60;;;;;;5008298;28;20045;-69
2023/11/03 00:41:39;;;;;;;8.23;4.60;;;13.10;94.90;;;;;;5042540;28;20021;-69
2023/11/03 00:44:07;;;;;;;6.95;3.92;;;13.30;95.00;;;;;;5042400;28;20041;-70
2023/11/03 00:46:35;;;;;;;7.18;4.57;;;13.00;92.10;;;;;;5024676;28;20028;-70
2023/11/03 00:49:01;;;;;;;12.02;5.00;;;;;;;;;;5024384;28;20363;-69
2023/11/03 00:51:27;;;;;;;8.93;4.18;;;;;;;;;;5042364;28;20026;-70
2023/11/03 00:53:53;;;;;;;11.10;5.10;;;;;;;;;;5042339;28;20024;-70
2023/11/03 00:56:20;;;;;;;10.20;4.53;;;;;;;;;;5042325;28;20084;-71
2023/11/03 00:58:46;;;;;;;10.07;4.75;;;;;;;;;;5042335;28;20041;-70
2023/11/03 01:01:13;;;;;;;8.55;5.45;;;13.00;95.40;;;;;;5042185;28;20022;-70
2023/11/03 01:03:39;;;;;;;8.60;4.47;;;;;;;;;;5024711;28;20022;-69
2023/11/03 01:06:07;;;;;;;11.02;4.72;;;12.80;95.20;;;;;;5041934;28;20101;-71
2023/11/03 01:08:33;;;;;;;7.18;4.63;;;13.00;95.20;;;;;;5042174;28;20024;-69
2023/11/03 01:11:00;;;;;;;8.50;5.30;;;;;;;;;;5042002;28;20100;-70
2023/11/03 01:13:27;;;;;;;9.25;4.60;;;;;;;;;;5047711;28;20356;-70
2023/11/03 01:15:53;;;;;;;8.35;4.50;;;;;;;;;;5061856;28;20037;-70
2023/11/03 01:18:19;;;;;;;6.13;4.53;;;12.60;95.20;;;;;;5061639;28;20233;-70
2023/11/03 01:20:48;;;;;;;8.57;4.60;;;;;;;;;;5061650;28;20021;-70
2023/11/03 01:23:14;;;;;;;8.57;4.90;;;12.90;95.50;;;;;;5061473;28;20035;-70
2023/11/03 01:25:43;;;;;;;11.93;4.88;;;12.80;95.50;;;;;;5061141;28;20131;-70
2023/11/03 01:28:09;;;;;;;11.48;5.25;;;;;;;;;;5061396;28;20336;-70
2023/11/03 01:30:35;;;;;;;8.45;4.60;;;;;;;;;;5061461;28;20063;-70
2023/11/03 01:33:00;;;;;;;8.52;5.13;;;12.90;92.20;;;;;;5043863;28;20013;-70
2023/11/03 01:35:26;;;;;;;8.50;4.78;;;12.90;95.40;;;;;;5061404;28;20052;-72
2023/11/03 01:37:53;;;;;;;6.78;4.57;;;12.30;90.20;;;;;;5061407;28;20083;-71
2023/11/03 01:40:19;;;;;;;8.43;4.55;;;11.80;89.50;;;;;;5043240;28;20091;-72
2023/11/03 01:42:48;;;;;;;9.00;4.63;;;12.70;93.80;;;;;;5061378;28;20089;-72
2023/11/03 01:45:14;;;;;;;;;;;12.60;90.10;;;;;;5061856;28;20324;-73
2023/11/03 01:47:41;;;;;;;7.28;4.28;;;;;;;;;;5043271;28;20361;-72
2023/11/03 01:50:09;;;;;;;6.40;4.03;;;12.60;93.80;;;;;;5061188;28;20056;-72
2023/11/03 01:52:36;;;;;;;8.90;4.28;;;12.80;95.10;;;;;;5061265;28;20500;-73
2023/11/03 01:55:02;;;;;;;7.30;5.25;;;;;;;;;;5043282;28;20040;-73
2023/11/03 01:57:29;;;;;;;8.52;4.07;;;12.70;88.40;;;;;;5043224;28;20062;-73
2023/11/03 01:59:56;;;;;;;7.30;4.10;;;12.70;88.10;;;;;;5061098;28;20163;-73
2023/11/03 02:02:29;;;;;;;6.35;4.00;;;12.60;94.60;;;;;;5060982;28;20084;-72
2023/11/03 02:04:55;;;;;;;7.50;4.00;;;;;;;;;;5061505;28;20017;-73
2023/11/03 02:07:21;;;;;;;5.30;3.50;;;12.70;87.70;;;;;;5061141;28;20060;-74
2023/11/03 02:09:47;;;;;;;8.88;4.00;;;;;;;;;;5060804;28;20083;-72
2023/11/03 02:12:13;;;;;;;6.90;3.90;;;12.60;92.40;;;;;;5060634;28;20016;-72
2023/11/03 02:14:39;;;;;;;6.55;3.53;;;;;;;;;;5022187;28;20059;-73
2023/11/03 02:17:05;;;;;;;8.07;4.78;;;;;;;;;;5040481;28;20352;-73
2023/11/03 02:19:32;;;;;;;9.00;4.93;;;12.50;88.70;;;;;;5040591;28;20112;-74
2023/11/03 02:21:58;;;;;;;7.28;4.35;;;;;;;;;;5040821;28;20321;-73
2023/11/03 02:24:24;;;;;;;11.48;4.55;;;;;;;;;;5040417;28;20029;-73
2023/11/03 02:26:50;;;;;;;5.65;3.92;;;12.80;94.20;;;;;;5022756;28;20034;-73
2023/11/03 02:29:17;;;;;;;6.70;4.18;;;;;;;;;;5040307;28;20102;-72
2023/11/03 02:31:44;;;;;;;8.60;3.75;;;;;;;;;;5040292;28;20093;-73
2023/11/03 02:34:10;;;;;;;5.18;3.88;;;12.50;90.80;;;;;;5040402;28;20040;-72
2023/11/03 02:36:35;;;;;;;7.38;3.70;;;12.50;94.50;;;;;;5040308;28;20281;-73
2023/11/03 02:39:02;;;;;;;9.20;4.15;;;;;;;;;;5039098;28;20045;-73
2023/11/03 02:41:28;;;;;;;9.23;4.38;;;;;;;;;;5022627;28;20037;-73
2023/11/03 02:43:54;;;;;;;8.55;4.18;;;;;;;;;;5040188;28;20021;-72
2023/11/03 02:46:23;;;;;;;9.90;3.97;;;;;;;;;;5040167;28;20139;-73
2023/11/03 02:48:49;;;;;;;;;;;12.50;87.90;;;;;;5040392;28;20096;-73
2023/11/03 02:51:15;;;;;;;7.10;3.25;;;12.40;94.70;;;;;;5038764;28;19915;-74
2023/11/03 02:53:41;;;;;;;6.10;3.85;;;;;;;;;;5039860;28;20017;-72
2023/11/03 02:56:06;;;;;;;6.93;4.00;;;12.40;90.70;;;;;;5039954;28;20089;-71
2023/11/03 02:58:37;;;;;;;6.47;3.85;;;12.30;88.10;;;;;;5040180;28;20371;-71
2023/11/03 03:01:07;;;;;;;6.28;3.85;;;12.30;92.60;;;;;;5040245;28;20057;-70
2023/11/03 03:03:33;;;;;;;7.80;4.13;;;;;;;;;;5039754;28;20337;-70
2023/11/03 03:05:59;;;;;;;7.68;3.30;;;12.10;90.50;;;;;;5039334;28;20044;-71
2023/11/03 03:08:25;;;;;;;8.45;4.15;;;12.10;95.00;;;;;;5020922;28;20036;-71
2023/11/03 03:10:51;;;;;;;9.32;4.05;;;;;;;;;;5020067;28;20044;-72
2023/11/03 03:13:17;;;;;;;9.35;4.05;;;;;;;;;;5024688;28;20208;-72
2023/11/03 03:15:43;;;;;;;6.13;3.47;;;;;;;;;;5039994;28;20037;-72
2023/11/03 03:18:09;;;;;;;6.65;4.05;;;;;;;;;;5040040;28;20366;-71
2023/11/03 03:20:35;;;;;;;6.03;3.50;;;;;;;;;;5039966;28;20029;-72
2023/11/03 03:23:01;;;;;;;5.75;3.50;;;12.10;94.30;;;;;;5039773;28;20025;-72
2023/11/03 03:25:27;;;;;;;6.75;3.60;;;12.30;95.30;;;;;;5039794;28;20210;-71
2023/11/03 03:27:55;;;;;;;8.15;4.10;;;;;;;;;;5039781;28;20071;-72
2023/11/03 03:30:21;;;;;;;6.07;3.57;;;;;;;;;;5039655;28;20289;-71
2023/11/03 03:32:47;;;;;;;9.27;4.47;;;;;;;;;;5039830;28;20060;-72
2023/11/03 03:35:13;;;;;;;7.15;3.65;;;;;;;;;;5039560;28;20029;-72
2023/11/03 03:37:39;;;;;;;6.28;3.67;;;;;;;;;;5039507;28;20020;-72
2023/11/03 03:40:05;;;;;;;9.70;4.53;;;12.20;89.20;;;;;;5039382;28;20054;-72
2023/11/03 03:42:31;;;;;;;7.30;3.83;;;;;;;;;;5039476;28;20028;-72
2023/11/03 03:44:59;;;;;;;6.07;3.55;;;;;;;;;;5039172;28;20312;-72
2023/11/03 03:47:25;;;;;;;4.60;3.45;;;;;;;;;;5039416;28;20310;-72
2023/11/03 03:49:50;;;;;;;11.80;4.20;;;12.10;92.30;;;;;;5041224;28;20045;-72
2023/11/03 03:52:16;;;;;;;7.30;3.47;;;;;;;;;;5043556;28;20022;-73
2023/11/03 03:54:42;;;;;;;5.38;3.40;;;;;;;;;;5043234;28;20352;-72
2023/11/03 03:57:08;;;;;;;9.30;3.35;;;;;;;;;;5043324;28;20026;-72
2023/11/03 03:59:34;;;;;;;7.32;3.00;;;12.50;95.30;;;;;;5043203;28;20040;-72
2023/11/03 04:02:00;;;;;;;7.88;3.40;;;;;;;;;;5043205;28;20357;-73
2023/11/03 04:04:26;;;;;;;4.78;3.38;;;12.30;95.00;;;;;;5043126;28;20092;-73
2023/11/03 04:06:52;;;;;;;5.07;3.22;;;;;;;;;;5043203;28;20322;-75
2023/11/03 04:09:17;;;;;;;5.38;3.28;;;12.30;92.50;;;;;;5042980;28;20064;-72
2023/11/03 04:11:43;;;;;;;4.63;3.17;;;;;;;;;;5043040;28;20025;-72
2023/11/03 04:14:09;;;;;;;5.65;3.10;;;12.40;93.90;;;;;;5041480;28;20033;-72
2023/11/03 04:16:36;;;;;;;5.25;3.33;;;12.40;95.00;;;;;;5041578;28;20213;-73
2023/11/03 04:19:02;;;;;;;7.93;3.63;;;12.30;94.90;;;;;;5042880;28;20017;-72
2023/11/03 04:21:28;;;;;;;4.47;2.83;;;12.40;95.00;;;;;;5042799;28;20025;-71
2023/11/03 04:23:54;;;;;;;6.72;3.45;;;;;;;;;;5024327;28;20037;-72
2023/11/03 04:26:19;;;;;;;8.23;3.22;;;12.20;90.50;;;;;;5042839;28;20032;-72
2023/11/03 04:28:45;;;;;;;6.38;3.28;;;12.40;95.30;;;;;;5043041;28;20018;-73
2023/11/03 04:31:11;;;;;;;5.40;3.83;;;;;;;;;;5043065;28;20098;-73
2023/11/03 04:33:37;;;;;;;5.78;3.58;;;12.10;92.40;;;;;;5042898;28;20029;-72
2023/11/03 04:36:03;;;;;;;6.68;3.17;;;12.10;92.00;;;;;;5042465;28;20029;-72
2023/11/03 04:38:29;;;;;;;6.38;3.13;;;;;;;;;;5042950;28;20025;-70
2023/11/03 04:40:55;;;;;;;4.90;3.17;;;12.50;95.60;;;;;;5042561;28;20048;-71
2023/11/03 04:43:21;;;;;;;5.65;2.72;;;12.70;95.80;;;;;;5042870;28;20064;-70
2023/11/03 04:45:47;;;;;;;5.72;3.92;;;;;;;;;;5042631;28;20040;-70
2023/11/03 04:48:15;;;;;;;7.88;3.90;;;12.10;93.30;;;;;;5042388;28;20028;-70
2023/11/03 04:50:41;;;;;;;5.82;3.20;;;;;;;;;;5042191;28;20033;-70
2023/11/03 04:53:07;;;;;;;4.95;2.92;;;;;;;;;;5042332;28;20323;-70
2023/11/03 04:55:32;;;;;;;6.50;3.08;;;12.30;92.70;;;;;;5024373;28;20037;-70
2023/11/03 04:58:01;;;;;;;8.35;3.13;;;12.20;89.80;;;;;;5042314;28;20022;-70
2023/11/03 05:00:27;;;;;;;6.57;3.80;;;;;;;;;;5041483;28;20360;-70
2023/11/03 05:02:53;;;;;;;8.50;3.92;;;;;;;;;;5041775;28;20052;-70
2023/11/03 05:05:19;;;;;;;5.47;3.55;;;;;;;;;;5042253;28;20056;-69
2023/11/03 05:07:45;;;;;;;9.38;3.35;;;;;;;;;;5041879;28;20033;-69
2023/11/03 05:10:13;;;;;;;6.43;3.33;;;;;;;;;;5041790;28;20103;-71
2023/11/03 05:12:39;;;;;;;3.72;2.55;;;;;;;;;;5042638;28;20037;-70
2023/11/03 05:15:08;;;;;;;9.25;3.10;;;12.20;95.20;;;;;;5062130;28;20017;-70
2023/11/03 05:17:34;;;;;;;4.60;3.22;;;12.50;94.10;;;;;;5044106;28;20259;-70
2023/11/03 05:20:00;;;;;;;4.18;2.92;;;12.20;95.20;;;;;;5061946;28;20025;-69
2023/11/03 05:22:25;;;;;;;6.78;2.75;;;12.50;91.80;;;;;;5061642;28;20020;-70
2023/11/03 05:24:51;;;;;;;4.28;2.85;;;13.00;95.00;;;;;;5043614;28;20331;-70
2023/11/03 05:27:18;;;;;;;8.27;2.40;;;;;;;;;;5061781;28;20503;-69
2023/11/03 05:29:43;;;;;;;5.47;2.53;;;12.60;94.60;;;;;;5061017;28;20501;-70
2023/11/03 05:32:11;;;;;;;4.97;2.78;;;12.60;90.50;;;;;;5060863;28;20074;-71
2023/11/03 05:34:37;;;;;;;4.15;2.70;;;12.50;91.40;;;;;;5060750;28;20028;-71
2023/11/03 05:37:03;;;;;;;5.95;3.00;;;;;;;;;;5061049;28;20025;-71
2023/11/03 05:39:31;;;;;;;4.78;2.38;;;;;;;;;;5060697;28;20049;-71
2023/11/03 05:41:57;;;;;;;6.22;3.15;;;13.20;90.10;;;;;;5061243;28;20031;-70
2023/11/03 05:44:24;;;;;;;4.18;2.65;;;12.60;94.30;;;;;;5061242;28;20059;-70
2023/11/03 05:46:49;;;;;;;6.00;2.97;;;12.70;90.60;;;;;;5061267;28;20236;-71
2023/11/03 05:49:15;;;;;;;4.82;2.45;;;12.80;94.60;;;;;;5060940;28;20051;-70
2023/11/03 05:51:41;;;;;;;4.32;3.03;;;12.50;94.70;;;;;;5061002;28;20024;-71
2023/11/03 05:54:07;;;;;;;7.18;2.88;;;;;;;;;;5061129;28;20033;-72
2023/11/03 05:56:33;;;;;;;5.80;2.85;;;;;;;;;;5061084;28;20055;-70
2023/11/03 05:58:59;;;;;;;6.90;2.63;;;12.50;92.40;;;;;;5060823;28;20013;-70
2023/11/03 06:01:25;;;;;;;6.50;2.53;;;;;;;;;;5042858;28;20216;-70
2023/11/03 06:03:51;;;;;;;5.72;2.60;;;12.70;94.80;;;;;;5060778;28;20017;-70
2023/11/03 06:06:17;;;;;;;4.68;2.90;;;;;;;;;;5021559;28;20030;-70
2023/11/03 06:08:42;;;;;;;7.47;3.38;;;12.60;90.70;;;;;;5040618;28;20191;-70
2023/11/03 06:11:09;;;;;;;3.83;2.38;;;;;;;;;;5040751;28;20127;-69
2023/11/03 06:13:37;;;;;;;5.78;2.83;;;12.50;94.60;;;;;;5040318;28;20021;-70
2023/11/03 06:16:05;;;;;;;5.18;2.70;;;12.80;94.60;;;;;;5023073;28;20033;-70
2023/11/03 06:18:31;;;;;;;3.97;2.83;;;;;;;;;;5040868;28;20077;-71
2023/11/03 06:20:58;;;;;;;4.15;2.72;;;;;;;;;;5040665;28;20025;-70
2023/11/03 06:23:23;;;;;;;5.22;2.80;;;12.70;94.70;;;;;;5040564;28;20186;-70
2023/11/03 06:25:49;;;;;;;4.38;2.63;;;;;;;;;;5040604;28;20364;-72
2023/11/03 06:28:15;;;;;;;4.20;2.58;;;;;;;;;;5040508;28;20029;-71
2023/11/03 06:30:42;;;;;;;7.65;3.20;;;12.90;94.60;;;;;;5040334;28;20035;-71
2023/11/03 06:33:08;;;;;;;4.05;2.70;;;;;;;;;;5040695;28;20051;-70
2023/11/03 06:35:35;;;;;;;5.88;2.90;;;;;;;;;;5022768;28;20241;-71
2023/11/03 06:38:01;;;;;;;4.03;2.90;;;;;;;;;;5040426;28;20021;-70
2023/11/03 06:40:27;;;;;;;6.05;2.85;;;;;;;;;;5040406;28;20061;-70
2023/11/03 06:42:53;;;;;;;3.55;2.70;;;;;;;;;;5040345;28;20025;-70
2023/11/03 06:45:20;;;;;;;8.45;3.22;;;;;;;;;;5040479;28;20014;-70
2023/11/03 06:47:48;;;;;;;6.25;2.67;;;;;;;;;;5040320;28;20028;-70
2023/11/03 06:50:14;;;;;;;5.25;2.60;;;13.00;94.30;;;;;;5040368;28;20119;-70
2023/11/03 06:52:41;;;;;;;8.63;2.97;;;;;;;;;;5040280;28;20261;-70
2023/11/03 06:55:08;;;;;;;7.75;3.65;;;12.70;88.00;;;;;;5040176;28;20017;-69
2023/11/03 06:57:38;;;;;;;4.82;2.78;;;12.60;95.00;;;;;;5040151;28;20017;-70
2023/11/03 07:00:06;;;;;;;5.90;3.17;;;12.90;93.40;;;;;;5040156;28;20021;-71
2023/11/03 07:02:33;;;;;;;3.80;2.55;;;12.80;93.50;;;;;;5040214;28;20040;-70
2023/11/03 07:05:00;;;;;;;5.20;3.10;;;;;;;;;;5040021;28;20032;-70
2023/11/03 07:07:26;;;;;;;4.97;3.38;;;12.90;93.60;;;;;;5040262;28;20063;-72
2023/11/03 07:09:52;;;;;;;7.78;3.38;;;;;;;;;;5039917;28;20037;-70
2023/11/03 07:12:17;;;;;;;4.88;2.65;;;12.30;92.90;;;;;;5040009;28;20017;-70
2023/11/03 07:14:45;;;;;;;10.02;4.43;;;;;;;;;;5039697;28;20329;-70
2023/11/03 07:17:12;;;;;;;5.57;3.63;;;;;;;;;;5022044;28;20024;-71
2023/11/03 07:19:38;;;;;;;5.47;3.35;;;12.20;92.10;;;;;;5039889;28;20312;-72
2023/11/03 07:22:04;;;;;;;7.75;3.10;;;12.10;97.90;;;;;;5021724;28;20310;-72
2023/11/03 07:24:30;;;;;;;6.45;3.90;;;12.20;98.40;;;;;;5023410;28;20025;-70
2023/11/03 07:26:56;;;;;;;7.30;4.22;;;;;;;;;;5044058;28;20323;-70
2023/11/03 07:29:22;;;;;;;10.80;4.20;;;;;;;;;;5043734;28;20043;-70
2023/11/03 07:31:48;;;;;;;17.00;3.75;;;12.20;96.00;;;;;;5044035;28;20026;-69
2023/11/03 07:34:14;;;;;;;9.82;4.28;;;;;;;;;;5043923;28;20029;-69
2023/11/03 07:36:41;;;;;;;9.55;3.53;;;;;;;;;;5043643;28;20029;-70
2023/11/03 07:39:07;;;;;;;8.50;3.83;;;12.10;99.90;;;;;;5043479;28;20033;-70
2023/11/03 07:41:35;;;;;;;5.18;3.42;;;12.20;94.90;;;;;;5043760;28;20369;-70
2023/11/03 07:44:02;;;;;;;4.90;3.75;;;11.80;96.30;;;;;;5043791;28;20091;-69
2023/11/03 07:46:30;;;;;;;5.57;3.13;;;;;;;;;;5025506;28;20083;-69
2023/11/03 07:49:04;;;;;;;5.18;3.90;;;14.60;95.80;;;;;;5043525;28;20013;-70
2023/11/03 07:51:30;;;;;;;8.50;3.75;;;12.10;99.90;;;;;;5043802;28;20152;-70
2023/11/03 07:53:59;;;;;;;6.50;3.72;;;12.00;95.40;;;;;;5025773;28;20037;-71
2023/11/03 07:56:25;;;;;;;5.03;3.88;;;11.80;99.90;;;;;;5043503;28;20027;-71
2023/11/03 07:58:51;;;;;;;6.40;4.07;;;11.80;99.90;;;;;;5043396;28;20029;-72
2023/11/03 08:01:17;;;;;;;6.25;3.72;;;;;;;;;;5043363;28;20022;-72
2023/11/03 08:03:43;;;;;;;6.93;3.88;;;12.00;96.30;;;;;;5025512;28;20029;-72
2023/11/03 08:06:09;;;;;;;5.43;3.60;;;;;;;;;;5043010;28;20029;-70
2023/11/03 08:08:36;;;;;;;5.90;3.90;;;12.10;99.90;;;;;;5043079;28;20025;-67
2023/11/03 08:11:03;;;;;;;7.53;4.05;;;;;;;;;;5042900;28;20124;-69
2023/11/03 08:13:29;;;;;;;4.82;3.67;;;;;;;;;;5050569;28;20024;-70
2023/11/03 08:15:55;;;;;;;12.18;4.53;;;11.90;98.40;;;;;;5062900;28;20029;-77
2023/11/03 08:18:21;;;;;;;7.72;4.15;;;12.00;99.90;;;;;;5063218;28;20017;-79
2023/11/03 08:20:47;;;;;;;5.53;3.30;;;11.90;98.60;;;;;;5045088;28;20029;-80
2023/11/03 08:23:14;;;;;;;6.20;3.72;;;;;;;;;;5045008;28;20052;-78
2023/11/03 08:25:40;;;;;;;6.95;4.65;;;;;;;;;;5044952;28;20029;-78
2023/11/03 08:28:06;;;;;;;6.35;4.13;;;12.00;99.90;;;;;;5062899;28;20021;-77
2023/11/03 08:30:33;;;;;;;5.95;4.10;;;12.10;99.90;;;;;;5062548;28;20051;-80
2023/11/03 08:32:59;;;;;;;8.35;4.60;;;;;;;;;;5062985;28;20056;-78
2023/11/03 08:35:26;;;;;;;8.77;4.45;;;11.70;99.90;;;;;;5044659;28;20055;-78
2023/11/03 08:37:53;;;;;;;7.82;4.47;;;11.80;99.90;;;;;;5044793;28;20021;-74
2023/11/03 08:40:22;;;;;;;8.27;4.15;;;12.00;98.80;;;;;;5062605;28;20067;-78
2023/11/03 08:42:49;;;;;;;7.10;3.30;;;11.70;99.90;;;;;;5045068;28;20029;-78
2023/11/03 08:45:16;;;;;;;8.55;4.70;;;11.90;99.90;;;;;;5044772;28;20083;-78
2023/11/03 08:47:41;;;;;;;9.68;4.25;;;12.00;99.90;;;;;;5044737;28;20044;-77
2023/11/03 08:50:15;;;;;;;8.15;4.45;;;12.10;99.00;;;;;;5044607;28;20055;-78
2023/11/03 08:52:44;;;;;;;5.70;3.33;;;12.10;99.20;;;;;;5062438;28;20267;-78
2023/11/03 08:55:11;;;;;;;8.40;4.00;;;12.40;99.90;;;;;;5044571;28;20021;-78
2023/11/03 08:57:39;;;;;;;7.72;3.70;;;12.10;99.50;;;;;;5062205;28;20008;-79
2023/11/03 09:00:11;;;;;;;9.60;4.55;;;12.00;99.90;;;;;;5044501;28;20390;-80
2023/11/03 09:02:37;;;;;;;8.43;4.38;;;;;;;;;;5044276;28;20224;-78
2023/11/03 09:05:07;;;;;;;9.90;5.18;;;12.00;99.90;;;;;;5044115;28;20028;-73
2023/11/03 09:07:35;;;;;;;6.57;4.50;;;12.10;99.90;;;;;;5046435;28;20052;-74
2023/11/03 09:10:03;;;;;;;6.30;4.00;;;;;;;;;;5024188;28;20041;-73
2023/11/03 09:12:30;;;;;;;9.93;5.10;;;12.20;99.90;;;;;;5041795;28;20028;-74
2023/11/03 09:14:57;;;;;;;8.68;4.88;;;;;;;;;;5023996;28;20096;-74
2023/11/03 09:17:23;;;;;;;8.15;4.80;;;;;;;;;;5041751;28;20268;-74
2023/11/03 09:19:49;;;;;;;7.20;4.72;;;12.30;99.90;;;;;;5041784;28;20089;-71
2023/11/03 09:22:16;;;;;;;7.53;5.75;;;12.10;99.90;;;;;;5036881;28;20038;-71
2023/11/03 09:24:42;;;;;;;7.63;4.45;;;12.30;99.90;;;;;;5038863;28;20244;-71
2023/11/03 09:27:09;;;;;;;9.23;4.70;;;;;;;;;;5033551;28;20025;-71
2023/11/03 09:29:34;;;;;;;8.57;4.53;;;12.20;99.90;;;;;;5041531;28;20029;-71
2023/11/03 09:32:00;;;;;;;10.88;5.60;;;;;;;;;;5041602;28;20029;-71
2023/11/03 09:34:27;;;;;;;6.65;4.68;;;12.20;99.90;;;;;;5041709;28;20083;-71
2023/11/03 09:36:54;;;;;;;6.45;4.22;;;;;;;;;;5041582;28;20029;-70
2023/11/03 09:39:20;;;;;;;7.05;4.57;;;12.30;99.90;;;;;;5041342;28;20042;-71
2023/11/03 09:42:02;;;;;;;11.90;5.20;;;12.40;99.90;;;;;;5041628;28;20033;-71
2023/11/03 09:44:29;;;;;;;6.53;4.30;;;12.60;99.90;;;;;;5041362;28;20104;-71
2023/11/03 09:46:56;;;;;;;6.18;4.10;;;12.60;99.90;;;;;;5040790;28;20022;-71
2023/11/03 09:49:22;;;;;;;6.88;4.03;;;;;;;;;;5032623;28;20380;-70
2023/11/03 09:51:48;;;;;;;8.43;5.20;;;12.60;99.90;;;;;;5003795;28;20030;-70
2023/11/03 09:54:15;;;;;;;5.80;3.97;;;12.80;99.90;;;;;;5021649;28;20187;-69
2023/11/03 09:56:45;;;;;;;8.50;5.00;;;12.90;99.90;;;;;;5021283;28;20025;-70
2023/11/03 09:59:12;;;;;;;8.85;5.22;;;12.80;99.90;;;;;;5021433;28;20344;-69
2023/11/03 10:01:38;;;;;;;15.77;7.15;;;12.90;99.90;;;;;;5020153;28;20087;-69
2023/11/03 10:04:07;;;;;;;5.03;2.90;;;12.90;99.90;;;;;;5021452;28;20217;-69
2023/11/03 10:06:33;;;;;;;8.20;4.00;;;12.80;99.90;;;;;;5021310;28;20029;-69
2023/11/03 10:08:59;;;;;;;6.10;4.55;;;12.80;99.90;;;;;;5021480;28;20025;-70
2023/11/03 10:11:26;;;;;;;6.03;4.93;;;13.10;99.90;;;;;;5021575;28;20037;-70
2023/11/03 10:13:51;;;;;;;6.10;3.50;;;13.20;99.90;;;;;;5042453;28;20021;-70
2023/11/03 10:16:17;;;;;;;4.90;3.88;;;;;;;;;;5060751;28;20028;-69
2023/11/03 10:18:43;;;;;;;3.83;3.10;;;;;;;;;;5043043;28;20048;-70
2023/11/03 10:21:09;;;;;;;3.22;2.83;;;13.40;99.90;;;;;;5042677;28;20028;-69
2023/11/03 10:23:38;;;;;;;4.75;3.28;;;13.20;99.90;;;;;;5060670;28;20096;-69
2023/11/03 10:26:07;;;;;;;4.07;2.67;;;13.20;99.90;;;;;;5051213;28;20025;-70
2023/11/03 10:28:36;;;;;;;6.95;3.95;;;13.10;99.90;;;;;;5040472;28;20206;-70
2023/11/03 10:31:04;;;;;;;3.92;3.45;;;13.20;99.90;;;;;;5040460;28;20229;-70
2023/11/03 10:33:30;;;;;;;4.25;3.85;;;13.40;99.90;;;;;;5020720;28;20033;-73
2023/11/03 10:35:56;;;;;;;5.80;3.28;;;13.70;99.90;;;;;;5020835;28;20034;-73
2023/11/03 10:38:23;;;;;;;4.28;3.65;;;13.40;99.90;;;;;;5020577;28;20057;-73
2023/11/03 10:40:51;;;;;;;7.20;3.45;;;13.30;99.90;;;;;;5002805;28;20346;-72
2023/11/03 10:43:19;;;;;;;4.57;3.28;;;13.40;99.90;;;;;;5021107;28;20492;-71
2023/11/03 10:46:01;;;;;;;2.70;2.30;;;13.40;99.90;;;;;;5040304;28;20356;-72
2023/11/03 10:48:42;;;;;;;3.40;3.10;;;13.40;99.90;;;;;;5022591;28;20029;-73
2023/11/03 10:51:16;;;;;;;4.63;3.67;;;13.30;99.90;;;;;;5040062;28;20069;-71
2023/11/03 10:54:10;;;;;;;4.30;2.92;;;13.30;99.90;;;;;;5040300;28;20129;-71
2023/11/03 10:56:37;;;;;;;3.30;2.58;;;13.40;99.90;;;;;;5040145;28;20025;-72
2023/11/03 10:59:04;;;;;;;4.38;3.03;;;13.40;99.90;;;;;;5038619;28;20017;-71
2023/11/03 11:01:58;;;;;;;0.82;0.82;;;13.20;99.90;;;;;;5040136;28;20088;-73
2023/11/03 11:04:42;;;;;;;2.25;1.23;;;13.40;99.90;;;;;;5039172;28;20030;-71
2023/11/03 11:07:15;;;;;;;2.65;1.45;;;14.00;99.90;;;;;;5031929;28;20325;-71
2023/11/03 11:09:45;;;;;;;3.58;2.38;;;13.60;99.90;;;;;;5040015;28;20072;-72
2023/11/03 11:12:13;;;;;;;6.10;3.13;;;13.10;99.90;;;;;;5040163;28;20029;-71
2023/11/03 11:14:41;;;;;;;2.30;1.80;;;13.50;99.90;;;;;;5022369;28;20191;-73
2023/11/03 11:17:13;;;;;;;3.15;1.80;;;13.30;99.90;;;;;;5040327;28;20084;-71
2023/11/03 11:19:45;;;;;;;4.35;1.60;;;13.40;99.90;;;;;;5022161;28;20022;-71
2023/11/03 11:22:23;;;;;;;2.85;1.58;;;13.40;99.90;;;;;;5040042;28;20013;-71
2023/11/03 11:24:51;;;;;;;5.00;2.40;;;13.60;98.50;;;;;;5039826;28;20307;-71
2023/11/03 11:27:22;;;;;;;5.25;2.97;;;13.60;98.60;;;;;;5036681;28;20615;-73
2023/11/03 11:29:51;;;;;;;3.80;2.70;;;13.60;98.50;;;;;;5037482;28;20349;-73
2023/11/03 11:32:18;;;;;;;3.28;2.10;;;;;;;;;;5039462;28;20037;-74
2023/11/03 11:34:45;;;;;;;2.65;2.25;;;13.60;99.00;;;;;;5035408;28;20068;-73
2023/11/03 11:37:30;;;;;;;2.53;2.10;;;13.60;99.20;;;;;;5031084;28;20017;-73
2023/11/03 11:40:03;;;;;;;3.47;2.30;;;13.70;99.90;;;;;;5030273;28;20095;-73
2023/11/03 11:42:35;;;;;;;3.25;2.50;;;13.70;99.90;;;;;;5042700;28;20284;-72
2023/11/03 11:45:02;;;;;;;2.97;2.42;;;13.90;99.90;;;;;;5022463;28;20030;-73
2023/11/03 11:47:30;;;;;;;3.63;1.98;;;13.80;99.50;;;;;;5030830;28;20018;-73
2023/11/03 11:49:57;;;;;;;2.08;1.50;;;13.90;99.40;;;;;;5024080;28;20049;-74
2023/11/03 11:52:26;;;;;;;2.63;2.15;;;13.90;99.20;;;;;;5034566;28;20321;-74
2023/11/03 11:54:57;;;;;;;2.40;2.20;;;14.00;98.90;;;;;;5036406;28;20100;-74
2023/11/03 11:57:26;;;;;;;2.95;1.67;;;14.00;99.00;;;;;;5034878;28;20337;-74
2023/11/03 11:59:55;;;;;;;2.10;1.30;;;13.90;99.90;;;;;;5045397;28;20033;-73
2023/11/03 12:02:22;;;;;;;2.15;1.30;;;14.10;99.90;;;;;;5021635;28;20221;-74
2023/11/03 12:04:50;;;;;;;2.72;1.40;;;14.00;98.70;;;;;;5020118;28;20096;-74
2023/11/03 12:07:22;;;;;;;5.72;1.45;;;13.90;97.90;;;;;;5019742;28;20026;-74
2023/11/03 12:09:53;;;;;;;1.10;0.90;;;13.80;99.90;;;;;;5019951;28;20042;-75
2023/11/03 12:12:20;;;;;;;2.13;1.60;;;;;;;;;;5023579;28;20030;-74
2023/11/03 12:14:47;;;;;;;1.10;1.00;;;;;;;;;;5006666;28;20068;-74
2023/11/03 12:17:14;;;;;;;1.63;0.90;;;14.20;98.60;;;;;;5025406;28;20084;-73
2023/11/03 12:19:46;;;;;;;1.50;1.30;;;13.90;96.90;;;;;;5043195;28;20076;-74
2023/11/03 12:22:26;;;;;;;4.00;2.00;;;14.00;99.90;;;;;;5025195;28;20040;-73
2023/11/03 12:24:54;;;;;;;4.35;1.80;;;13.80;96.90;;;;;;5042936;28;20206;-75
2023/11/03 12:27:20;;;;;;;1.83;1.50;;;13.70;97.80;;;;;;5042860;28;20072;-75
2023/11/03 12:29:47;;;;;;;2.53;1.38;;;13.90;96.80;;;;;;5042676;28;20068;-74
2023/11/03 12:32:13;;;;;;;2.28;1.23;;;14.00;96.70;;;;;;5042601;28;20033;-74
2023/11/03 12:34:41;;;;;;;3.03;1.67;;;14.00;96.50;;;;;;5042739;28;20040;-75
2023/11/03 12:37:07;;;;;;;4.10;1.38;;;14.00;99.70;;;;;;5042851;28;20040;-76
2023/11/03 12:39:54;;;;;;;3.97;1.60;;;14.00;96.70;;;;;;5042399;28;20300;-74
2023/11/03 12:42:24;;;;;;;2.50;1.50;;;14.10;99.10;;;;;;5042336;28;20029;-74
2023/11/03 12:45:01;;;;;;;6.30;1.63;;;14.10;97.10;;;;;;5042373;28;20018;-74
2023/11/03 12:47:37;;;;;;;3.20;1.33;;;13.90;97.10;;;;;;5041111;28;20029;-75
2023/11/03 12:50:18;;;;;;;5.97;1.48;;;13.80;97.80;;;;;;5042298;28;20037;-75
2023/11/03 12:52:47;;;;;;;2.40;1.70;;;13.90;97.30;;;;;;5011725;28;20106;-74
2023/11/03 12:55:19;;;;;;;2.65;1.48;;;13.70;99.90;;;;;;5021169;28;20049;-76
2023/11/03 12:57:45;;;;;;;5.53;1.30;;;;;;;;;;5022533;28;20018;-76
2023/11/03 13:00:15;;;;;;;5.30;2.28;;;13.90;99.90;;;;;;5004706;28;20088;-75
2023/11/03 13:02:41;;;;;;;5.20;2.55;;;;;;;;;;5022218;28;20325;-76
2023/11/03 13:05:09;;;;;;;2.20;1.50;;;;;;;;;;5022204;28;20021;-74
2023/11/03 13:07:38;;;;;;;2.95;1.48;;;13.50;99.90;;;;;;5004656;28;20025;-75
2023/11/03 13:10:05;;;;;;;1.88;1.42;;;;;;;;;;5022340;28;20048;-76
2023/11/03 13:12:32;;;;;;;1.98;1.23;;;13.50;99.90;;;;;;5022303;28;20083;-75
2023/11/03 13:14:58;;;;;;;1.52;1.30;;;;;;;;;;5022138;28;20038;-74
2023/11/03 13:17:24;;;;;;;1.67;1.10;;;13.40;99.90;;;;;;5021999;28;20022;-73
2023/11/03 13:19:50;;;;;;;1.75;1.10;;;;;;;;;;5022226;28;20028;-73
2023/11/03 13:22:16;;;;;;;1.10;0.80;;;;;;;;;;5021281;28;20036;-74
2023/11/03 13:24:45;;;;;;;1.33;1.02;;;13.10;99.90;;;;;;5021978;28;20021;-73
2023/11/03 13:27:11;;;;;;;1.42;1.15;;;;;;;;;;5004192;28;20366;-72
2023/11/03 13:29:37;;;;;;;2.65;1.27;;;13.30;99.90;;;;;;5021910;28;20258;-72